createdAt,value
2019-04-28T00:02:26.853Z,39.56
2019-04-28T00:04:58.450Z,39.24
2019-04-28T00:07:29.953Z,39.16
2019-04-28T00:10:02.736Z,38.69
2019-04-28T00:12:35.663Z,38.84
2019-04-28T00:15:10.765Z,39.29
2019-04-28T00:17:42.475Z,38.43
2019-04-28T00:20:15.402Z,37.88
2019-04-28T00:22:51.582Z,37.88
2019-04-28T00:25:24.679Z,38.38
2019-04-28T00:27:56.261Z,39.44
2019-04-28T00:30:27.805Z,39.89
2019-04-28T00:32:59.323Z,40.27
2019-04-28T00:35:31.883Z,40.74
2019-04-28T00:38:04.061Z,40.69
2019-04-28T00:40:35.520Z,40.63
2019-04-28T00:43:06.964Z,40.83
2019-04-28T00:45:38.413Z,40.88
2019-04-28T00:48:10.966Z,41.11
2019-04-28T00:50:43.789Z,40.94
2019-04-28T00:53:15.344Z,40.43
2019-04-28T00:55:46.849Z,39.51
2019-04-28T00:58:18.262Z,39.02
2019-04-28T01:00:51.469Z,38.60
2019-04-28T01:03:23.972Z,37.78
2019-04-28T01:05:55.455Z,37.10
2019-04-28T01:08:26.879Z,36.49
2019-04-28T01:10:58.353Z,36.72
2019-04-28T01:13:31.835Z,36.58
2019-04-28T01:16:05.126Z,36.87
2019-04-28T01:18:44.076Z,37.03
2019-04-28T01:21:15.564Z,37.22
2019-04-28T01:23:47.425Z,37.72
2019-04-28T01:26:20.005Z,38.26
2019-04-28T01:28:51.518Z,39.11
2019-04-28T01:31:27.189Z,39.77
2019-04-28T01:34:16.713Z,40.96
2019-04-28T01:36:49.578Z,43.11
2019-04-28T01:39:21.373Z,44.84
2019-04-28T01:41:52.732Z,45.52
2019-04-28T01:44:24.149Z,44.48
2019-04-28T01:46:55.614Z,45.42
2019-04-28T01:49:26.991Z,45.82
2019-04-28T01:52:01.133Z,45.38
2019-04-28T01:54:32.676Z,46.00
2019-04-28T01:57:04.025Z,45.46
2019-04-28T01:59:35.395Z,45.38
2019-04-28T02:02:07.067Z,46.06
2019-04-28T02:04:40.204Z,46.30
2019-04-28T02:07:11.751Z,46.51
2019-04-28T02:09:43.202Z,46.19
2019-04-28T02:12:15.372Z,46.24
2019-04-28T02:14:46.937Z,46.24
2019-04-28T02:17:20.184Z,46.22
2019-04-28T02:19:51.722Z,47.27
2019-04-28T02:22:27.460Z,47.06
2019-04-28T02:25:00.314Z,47.58
2019-04-28T02:27:31.970Z,47.33
2019-04-28T02:30:04.483Z,47.15
2019-04-28T02:32:35.967Z,46.98
2019-04-28T02:35:10.532Z,45.73
2019-04-28T02:37:41.276Z,45.00
2019-04-28T02:40:12.700Z,44.66
2019-04-28T02:42:44.152Z,43.69
2019-04-28T02:45:21.489Z,43.45
2019-04-28T02:47:53.200Z,43.70
2019-04-28T02:50:26.293Z,43.33
2019-04-28T02:53:01.614Z,42.98
2019-04-28T02:55:32.964Z,43.08
2019-04-28T02:58:04.285Z,42.99
2019-04-28T03:00:35.573Z,42.58
2019-04-28T03:03:07.006Z,42.00
2019-04-28T03:05:40.989Z,41.85
2019-04-28T03:08:11.565Z,41.61
2019-04-28T03:10:42.900Z,41.23
2019-04-28T03:13:14.196Z,41.07
2019-04-28T03:15:45.616Z,40.63
2019-04-28T03:18:16.823Z,39.96
2019-04-28T03:20:48.104Z,39.67
2019-04-28T03:23:20.627Z,39.27
2019-04-28T03:25:53.883Z,39.05
2019-04-28T03:28:26.908Z,38.54
2019-04-28T03:31:13.140Z,38.61
2019-04-28T03:33:41.952Z,38.04
2019-04-28T03:36:14.782Z,37.84
2019-04-28T03:38:42.598Z,38.03
2019-04-28T03:41:13.854Z,37.63
2019-04-28T03:43:45.323Z,37.75
2019-04-28T03:46:20.991Z,37.31
2019-04-28T03:48:52.489Z,37.68
2019-04-28T03:51:23.837Z,37.36
2019-04-28T03:53:55.239Z,36.68
2019-04-28T03:56:26.741Z,35.69
2019-04-28T03:59:00.461Z,35.10
2019-04-28T04:01:31.422Z,34.68
2019-04-28T04:04:03.632Z,34.31
2019-04-28T04:06:37.986Z,34.29
2019-04-28T04:09:11.252Z,34.11
2019-04-28T04:11:44.356Z,33.96
2019-04-28T04:14:21.107Z,33.75
2019-04-28T04:17:00.277Z,34.01
2019-04-28T04:19:34.358Z,34.32
2019-04-28T04:22:05.707Z,34.55
2019-04-28T04:24:37.233Z,35.12
2019-04-28T04:27:10.761Z,35.25
2019-04-28T04:29:43.661Z,34.77
2019-04-28T04:32:23.091Z,35.48
2019-04-28T04:34:50.428Z,35.63
2019-04-28T04:37:21.197Z,35.57
2019-04-28T04:39:52.622Z,35.79
2019-04-28T04:42:23.930Z,35.96
2019-04-28T04:44:55.459Z,35.03
2019-04-28T04:47:26.833Z,35.27
2019-04-28T04:50:00.282Z,35.26
2019-04-28T04:52:31.449Z,34.81
2019-04-28T04:55:02.960Z,34.81
2019-04-28T04:57:34.348Z,35.15
2019-04-28T05:00:10.138Z,35.49
2019-04-28T05:02:51.125Z,35.67
2019-04-28T05:05:18.079Z,35.32
2019-04-28T05:07:50.737Z,34.56
2019-04-28T05:10:22.215Z,34.37
2019-04-28T05:12:53.618Z,33.73
2019-04-28T05:15:26.029Z,34.08
2019-04-28T05:17:57.347Z,34.51
2019-04-28T05:20:30.267Z,34.08
2019-04-28T05:23:03.604Z,34.24
2019-04-28T05:25:39.915Z,34.65
2019-04-28T05:28:11.310Z,34.45
2019-04-28T05:30:43.080Z,34.17
2019-04-28T05:33:16.274Z,33.60
2019-04-28T05:35:50.096Z,33.58
2019-04-28T05:38:22.633Z,33.54
2019-04-28T05:40:54.345Z,34.01
2019-04-28T05:43:25.746Z,34.26
2019-04-28T05:45:56.980Z,34.83
2019-04-28T05:48:46.564Z,35.39
2019-04-28T05:51:19.949Z,36.19
2019-04-28T05:53:53.881Z,37.21
2019-04-28T05:56:27.034Z,36.07
2019-04-28T05:59:00.635Z,36.06
2019-04-28T06:01:33.981Z,36.66
2019-04-28T06:04:05.507Z,36.56
2019-04-28T06:06:40.406Z,36.65
2019-04-28T06:09:22.409Z,36.43
2019-04-28T06:11:54.628Z,36.70
2019-04-28T06:14:26.213Z,36.91
2019-04-28T06:16:57.609Z,36.93
2019-04-28T06:19:30.201Z,37.29
2019-04-28T06:22:01.654Z,39.23
2019-04-28T06:24:33.114Z,38.27
2019-04-28T06:27:04.559Z,39.10
2019-04-28T06:29:36.113Z,37.98
2019-04-28T06:32:08.027Z,37.65
2019-04-28T06:34:42.197Z,38.24
2019-04-28T06:37:13.563Z,39.29
2019-04-28T06:39:47.306Z,39.44
2019-04-28T06:42:17.735Z,39.81
2019-04-28T06:44:48.925Z,40.57
2019-04-28T06:47:20.275Z,41.13
2019-04-28T06:49:51.786Z,41.63
2019-04-28T06:52:23.275Z,42.97
2019-04-28T06:54:54.685Z,44.91
2019-04-28T06:57:27.217Z,48.66
2019-04-28T06:59:58.588Z,48.48
2019-04-28T07:02:30.036Z,51.26
2019-04-28T07:05:02.554Z,54.04
2019-04-28T07:07:34.314Z,54.49
2019-04-28T07:10:07.251Z,52.84
2019-04-28T07:12:38.850Z,49.35
2019-04-28T07:15:11.488Z,48.47
2019-04-28T07:17:43.162Z,47.92
2019-04-28T07:20:25.586Z,50.88
2019-04-28T07:22:57.082Z,52.10
2019-04-28T07:25:29.658Z,52.06
2019-04-28T07:28:01.180Z,50.12
2019-04-28T07:30:32.826Z,46.84
2019-04-28T07:33:04.642Z,45.64
2019-04-28T07:35:36.256Z,43.80
2019-04-28T07:38:07.805Z,42.27
2019-04-28T07:40:39.244Z,43.74
2019-04-28T07:43:10.871Z,41.28
2019-04-28T07:45:43.559Z,42.19
2019-04-28T07:48:15.355Z,40.68
2019-04-28T07:50:46.835Z,40.27
2019-04-28T07:53:20.020Z,44.69
2019-04-28T07:55:51.502Z,44.73
2019-04-28T07:58:22.923Z,46.04
2019-04-28T08:00:54.377Z,45.90
2019-04-28T08:03:25.840Z,45.59
2019-04-28T08:05:57.302Z,43.85
2019-04-28T08:08:28.727Z,44.68
2019-04-28T08:11:00.213Z,44.97
2019-04-28T08:13:31.734Z,43.17
2019-04-28T08:16:03.081Z,43.74
2019-04-28T08:18:35.776Z,42.00
2019-04-28T08:21:07.136Z,42.37
2019-04-28T08:23:47.067Z,42.24
2019-04-28T08:26:12.927Z,40.84
2019-04-28T08:28:44.465Z,38.13
2019-04-28T08:31:17.701Z,36.63
2019-04-28T08:34:01.676Z,35.86
2019-04-28T08:36:23.809Z,35.02
2019-04-28T08:38:55.074Z,34.51
2019-04-28T08:41:26.451Z,33.61
2019-04-28T08:43:57.741Z,32.35
2019-04-28T08:46:30.780Z,31.72
2019-04-28T08:49:02.071Z,30.93
2019-04-28T08:51:33.450Z,31.33
2019-04-28T08:54:04.899Z,31.09
2019-04-28T08:56:36.153Z,30.78
2019-04-28T08:59:07.568Z,29.94
2019-04-28T09:01:38.825Z,29.55
2019-04-28T09:04:15.514Z,29.41
2019-04-28T09:06:43.238Z,28.91
2019-04-28T09:09:16.129Z,28.54
2019-04-28T09:11:47.349Z,27.85
2019-04-28T09:14:18.733Z,28.40
2019-04-28T09:16:51.088Z,28.32
2019-04-28T09:19:22.453Z,28.87
2019-04-28T09:21:53.797Z,28.32
2019-04-28T09:24:25.097Z,28.59
2019-04-28T09:26:56.478Z,28.96
2019-04-28T09:29:28.062Z,28.88
2019-04-28T09:31:59.513Z,28.40
2019-04-28T09:34:30.954Z,29.03
2019-04-28T09:37:02.255Z,29.27
2019-04-28T09:39:47.155Z,29.29
2019-04-28T09:42:33.386Z,30.46
2019-04-28T09:45:16.061Z,28.26
2019-04-28T09:47:47.596Z,28.65
2019-04-28T09:50:18.889Z,28.27
2019-04-28T09:52:50.176Z,27.92
2019-04-28T09:55:21.594Z,28.11
2019-04-28T09:57:54.798Z,28.52
2019-04-28T10:00:25.551Z,29.04
2019-04-28T10:02:56.738Z,29.09
2019-04-28T10:05:28.131Z,29.32
2019-04-28T10:07:59.710Z,28.80
2019-04-28T10:10:31.152Z,29.66
2019-04-28T10:13:02.571Z,29.51
2019-04-28T10:15:34.013Z,29.16
2019-04-28T10:18:05.268Z,29.72
2019-04-28T10:20:36.581Z,28.88
2019-04-28T10:23:07.909Z,28.73
2019-04-28T10:25:39.135Z,29.30
2019-04-28T10:28:10.712Z,29.56
2019-04-28T10:30:42.070Z,29.17
2019-04-28T10:33:13.675Z,29.88
2019-04-28T10:35:45.225Z,29.67
2019-04-28T10:38:16.689Z,28.74
2019-04-28T10:40:55.558Z,28.53
2019-04-28T10:43:27.044Z,28.22
2019-04-28T10:45:59.360Z,28.04
2019-04-28T10:48:31.191Z,28.31
2019-04-28T10:51:02.536Z,29.40
2019-04-28T10:53:33.987Z,29.84
2019-04-28T10:56:05.438Z,28.56
2019-04-28T10:58:36.808Z,28.13
2019-04-28T11:01:08.390Z,28.65
2019-04-28T11:03:40.887Z,27.77
2019-04-28T11:06:12.698Z,27.62
2019-04-28T11:08:45.787Z,28.03
2019-04-28T11:11:18.955Z,27.95
2019-04-28T11:13:50.237Z,27.83
2019-04-28T11:16:23.224Z,28.60
2019-04-28T11:18:54.645Z,33.16
2019-04-28T11:21:25.991Z,34.28
2019-04-28T11:23:57.614Z,34.96
2019-04-28T11:26:29.199Z,35.05
2019-04-28T11:29:00.706Z,36.38
2019-04-28T11:31:32.164Z,35.56
2019-04-28T11:34:05.229Z,35.60
2019-04-28T11:36:36.060Z,35.01
2019-04-28T11:39:10.020Z,35.47
2019-04-28T11:41:43.045Z,34.97
2019-04-28T11:44:14.614Z,34.28
2019-04-28T11:46:46.136Z,35.71
2019-04-28T11:49:17.632Z,33.14
2019-04-28T11:51:49.274Z,33.26
2019-04-28T11:54:20.796Z,33.38
2019-04-28T11:56:52.297Z,33.82
2019-04-28T11:59:23.895Z,33.39
2019-04-28T12:01:55.542Z,33.79
2019-04-28T12:04:27.009Z,33.42
2019-04-28T12:06:58.448Z,34.28
2019-04-28T12:09:34.257Z,33.63
2019-04-28T12:12:08.721Z,32.94
2019-04-28T12:14:41.860Z,33.55
2019-04-28T12:17:27.025Z,33.23
2019-04-28T12:20:00.302Z,33.92
2019-04-28T12:22:31.128Z,33.97
2019-04-28T12:25:02.148Z,34.50
2019-04-28T12:27:33.798Z,34.90
2019-04-28T12:30:05.953Z,35.68
2019-04-28T12:32:37.628Z,35.06
2019-04-28T12:35:09.274Z,35.16
2019-04-28T12:37:40.701Z,34.43
2019-04-28T12:40:12.658Z,35.51
2019-04-28T12:42:44.275Z,35.65
2019-04-28T12:45:17.323Z,37.23
2019-04-28T12:47:48.732Z,37.54
2019-04-28T12:50:21.958Z,38.38
2019-04-28T12:52:53.461Z,38.47
2019-04-28T12:55:24.976Z,38.46
2019-04-28T12:57:56.566Z,38.40
2019-04-28T13:00:29.550Z,38.92
2019-04-28T13:03:18.717Z,39.50
2019-04-28T13:06:01.579Z,39.04
2019-04-28T13:08:24.969Z,38.99
2019-04-28T13:10:56.452Z,39.75
2019-04-28T13:13:28.014Z,39.58
2019-04-28T13:15:59.471Z,40.20
2019-04-28T13:18:31.062Z,39.55
2019-04-28T13:21:02.345Z,38.74
2019-04-28T13:23:34.742Z,38.95
2019-04-28T13:26:05.968Z,39.98
2019-04-28T13:28:37.251Z,40.10
2019-04-28T13:31:08.572Z,40.29
2019-04-28T13:33:53.816Z,40.43
2019-04-28T13:36:15.016Z,40.63
2019-04-28T13:38:45.395Z,41.28
2019-04-28T13:41:16.505Z,41.45
2019-04-28T13:43:47.887Z,41.37
2019-04-28T13:46:19.141Z,41.42
2019-04-28T13:48:50.476Z,41.75
2019-04-28T13:51:21.967Z,41.66
2019-04-28T13:53:53.559Z,41.35
2019-04-28T13:56:25.022Z,41.89
2019-04-28T13:58:58.109Z,41.70
2019-04-28T14:01:31.239Z,42.00
2019-04-28T14:04:16.417Z,42.39
2019-04-28T14:06:49.513Z,41.21
2019-04-28T14:09:20.773Z,40.91
2019-04-28T14:11:52.328Z,39.90
2019-04-28T14:14:24.139Z,40.27
2019-04-28T14:16:55.645Z,40.31
2019-04-28T14:19:26.998Z,40.06
2019-04-28T14:21:58.383Z,39.06
2019-04-28T14:24:29.819Z,39.75
2019-04-28T14:27:02.335Z,40.60
2019-04-28T14:29:33.854Z,40.60
2019-04-28T14:32:05.283Z,41.16
2019-04-28T14:34:36.905Z,41.48
2019-04-28T14:37:08.352Z,40.67
2019-04-28T14:39:39.978Z,39.66
2019-04-28T14:42:11.437Z,39.36
2019-04-28T14:44:42.885Z,39.33
2019-04-28T14:47:14.389Z,39.41
2019-04-28T14:49:45.786Z,39.50
2019-04-28T14:52:17.306Z,39.44
2019-04-28T14:54:49.801Z,39.35
2019-04-28T14:57:21.303Z,38.80
2019-04-28T14:59:52.710Z,38.88
2019-04-28T15:02:43.117Z,39.71
2019-04-28T15:05:19.166Z,40.30
2019-04-28T15:08:08.545Z,40.47
2019-04-28T15:10:53.742Z,40.67
2019-04-28T15:13:26.185Z,39.95
2019-04-28T15:15:57.551Z,39.87
2019-04-28T15:18:29.333Z,39.30
2019-04-28T15:21:00.738Z,39.12
2019-04-28T15:23:32.202Z,38.99
2019-04-28T15:26:03.705Z,39.17
2019-04-28T15:28:35.061Z,39.43
2019-04-28T15:31:06.559Z,38.51
2019-04-28T15:33:37.970Z,37.91
2019-04-28T15:36:09.620Z,37.22
2019-04-28T15:38:41.159Z,36.92
2019-04-28T15:41:21.526Z,37.10
2019-04-28T15:43:45.647Z,36.83
2019-04-28T15:46:17.380Z,36.88
2019-04-28T15:48:49.061Z,36.96
2019-04-28T15:51:20.551Z,37.55
2019-04-28T15:53:52.180Z,37.89
2019-04-28T15:56:25.281Z,38.32
2019-04-28T15:58:56.962Z,38.92
2019-04-28T16:01:28.452Z,39.38
2019-04-28T16:03:59.991Z,39.49
2019-04-28T16:06:31.473Z,39.84
2019-04-28T16:09:03.247Z,40.30
2019-04-28T16:11:35.555Z,40.62
2019-04-28T16:14:06.855Z,40.78
2019-04-28T16:16:39.404Z,41.33
2019-04-28T16:19:10.916Z,41.23
2019-04-28T16:21:42.526Z,40.91
2019-04-28T16:24:14.230Z,41.02
2019-04-28T16:26:45.728Z,41.01
2019-04-28T16:29:17.218Z,41.34
2019-04-28T16:31:48.877Z,41.61
2019-04-28T16:34:20.423Z,41.79
2019-04-28T16:36:51.790Z,42.06
2019-04-28T16:39:23.308Z,42.61
2019-04-28T16:41:54.919Z,42.94
2019-04-28T16:44:26.438Z,43.34
2019-04-28T16:46:57.890Z,43.14
2019-04-28T16:49:29.319Z,43.61
2019-04-28T16:52:00.733Z,44.47
2019-04-28T16:54:32.376Z,44.50
2019-04-28T16:57:12.516Z,44.86
2019-04-28T16:59:51.312Z,45.96
2019-04-28T17:02:27.349Z,45.78
2019-04-28T17:04:58.907Z,46.19
2019-04-28T17:07:30.368Z,46.01
2019-04-28T17:10:03.011Z,46.00
2019-04-28T17:12:34.497Z,45.84
2019-04-28T17:15:07.252Z,45.73
2019-04-28T17:17:38.735Z,45.77
2019-04-28T17:20:10.730Z,45.44
2019-04-28T17:22:42.202Z,45.40
2019-04-28T17:25:13.689Z,45.28
2019-04-28T17:27:45.052Z,45.06
2019-04-28T17:30:17.403Z,45.06
2019-04-28T17:32:49.532Z,45.73
2019-04-28T17:35:22.036Z,46.12
2019-04-28T17:38:06.010Z,46.37
2019-04-28T17:40:29.050Z,46.64
2019-04-28T17:43:00.584Z,46.83
2019-04-28T17:45:32.112Z,46.90
2019-04-28T17:48:05.433Z,47.05
2019-04-28T17:50:37.389Z,46.86
2019-04-28T17:53:08.810Z,46.71
2019-04-28T17:55:40.153Z,46.32
2019-04-28T17:58:11.575Z,45.51
2019-04-28T18:00:47.533Z,45.03
2019-04-28T18:03:20.614Z,44.79
2019-04-28T18:05:56.643Z,45.03
2019-04-28T18:08:28.236Z,44.85
2019-04-28T18:10:59.730Z,44.92
2019-04-28T18:13:31.332Z,45.24
2019-04-28T18:16:13.574Z,45.15
2019-04-28T18:18:46.846Z,45.14
2019-04-28T18:21:18.207Z,45.33
2019-04-28T18:23:49.618Z,45.16
2019-04-28T18:26:21.094Z,45.19
2019-04-28T18:28:52.546Z,46.17
2019-04-28T18:31:40.625Z,46.39
2019-04-28T18:34:29.854Z,46.72
2019-04-28T18:37:14.661Z,46.44
2019-04-28T18:40:03.867Z,46.94
2019-04-28T18:42:41.101Z,47.46
2019-04-28T18:45:12.982Z,46.60
2019-04-28T18:47:44.485Z,47.46
2019-04-28T18:50:16.042Z,47.10
2019-04-28T18:52:47.702Z,47.84
2019-04-28T18:55:19.148Z,48.54
2019-04-28T18:57:50.753Z,47.06
2019-04-28T19:00:23.795Z,47.98
2019-04-28T19:02:55.355Z,47.62
2019-04-28T19:05:28.545Z,48.04
2019-04-28T19:08:01.673Z,47.76
2019-04-28T19:10:40.297Z,48.68
2019-04-28T19:13:12.869Z,49.00
2019-04-28T19:15:48.909Z,49.71
2019-04-28T19:18:22.175Z,50.05
2019-04-28T19:20:53.449Z,48.37
2019-04-28T19:23:24.813Z,46.25
2019-04-28T19:25:56.163Z,46.71
2019-04-28T19:28:27.592Z,46.42
2019-04-28T19:30:59.130Z,46.03
2019-04-28T19:33:30.589Z,46.54
2019-04-28T19:36:01.923Z,47.11
2019-04-28T19:38:33.378Z,47.00
2019-04-28T19:41:04.835Z,45.18
2019-04-28T19:43:36.307Z,46.00
2019-04-28T19:46:09.480Z,46.16
2019-04-28T19:48:40.991Z,46.11
2019-04-28T19:51:12.383Z,45.65
2019-04-28T19:53:43.848Z,44.66
2019-04-28T19:56:19.720Z,44.64
2019-04-28T19:59:01.951Z,44.04
2019-04-28T20:01:34.194Z,43.75
2019-04-28T20:04:05.671Z,43.02
2019-04-28T20:06:37.091Z,43.00
2019-04-28T20:09:08.903Z,43.11
2019-04-28T20:11:41.107Z,43.16
2019-04-28T20:14:12.341Z,43.28
2019-04-28T20:16:43.866Z,43.19
2019-04-28T20:19:15.325Z,43.15
2019-04-28T20:21:46.736Z,43.64
2019-04-28T20:24:19.584Z,43.43
2019-04-28T20:26:52.299Z,43.42
2019-04-28T20:29:23.751Z,43.56
2019-04-28T20:31:55.322Z,43.86
2019-04-28T20:34:26.912Z,43.93
2019-04-28T20:37:02.697Z,44.20
2019-04-28T20:39:34.215Z,44.15
2019-04-28T20:42:16.381Z,44.22
2019-04-28T20:44:47.850Z,44.28
2019-04-28T20:47:19.320Z,44.50
2019-04-28T20:49:50.827Z,44.44
2019-04-28T20:52:22.221Z,44.75
2019-04-28T20:54:53.587Z,44.48
2019-04-28T20:57:25.227Z,44.26
2019-04-28T20:59:56.685Z,44.03
2019-04-28T21:02:28.097Z,43.88
2019-04-28T21:04:59.510Z,43.83
2019-04-28T21:07:30.927Z,43.65
2019-04-28T21:10:02.385Z,43.67
2019-04-28T21:12:34.863Z,43.97
2019-04-28T21:15:07.316Z,43.69
2019-04-28T21:17:38.753Z,43.72
2019-04-28T21:20:10.469Z,43.83
2019-04-28T21:22:41.841Z,43.68
2019-04-28T21:25:13.331Z,43.81
2019-04-28T21:27:44.783Z,43.98
2019-04-28T21:30:16.779Z,43.85
2019-04-28T21:32:48.401Z,43.94
2019-04-28T21:35:19.905Z,43.99
2019-04-28T21:37:51.332Z,43.92
2019-04-28T21:40:23.170Z,43.80
2019-04-28T21:43:05.033Z,43.82
2019-04-28T21:45:50.052Z,43.84
2019-04-28T21:48:33.063Z,43.55
2019-04-28T21:51:04.371Z,43.31
2019-04-28T21:53:36.065Z,43.38
2019-04-28T21:56:07.533Z,43.70
2019-04-28T21:58:38.978Z,42.99
2019-04-28T22:01:13.400Z,43.30
2019-04-28T22:03:46.900Z,43.60
2019-04-28T22:06:18.777Z,43.08
2019-04-28T22:08:50.431Z,43.17
2019-04-28T22:11:21.859Z,43.04
2019-04-28T22:13:53.483Z,43.11
2019-04-28T22:16:25.002Z,43.12
2019-04-28T22:18:56.514Z,42.84
2019-04-28T22:21:28.620Z,42.99
2019-04-28T22:24:01.776Z,43.32
2019-04-28T22:26:43.523Z,43.58
2019-04-28T22:29:14.986Z,43.91
2019-04-28T22:31:46.981Z,43.82
2019-04-28T22:34:18.534Z,44.10
2019-04-28T22:36:49.998Z,44.15
2019-04-28T22:39:21.543Z,44.12
2019-04-28T22:41:53.025Z,44.33
2019-04-28T22:44:24.543Z,44.54
2019-04-28T22:46:55.970Z,44.50
2019-04-28T22:49:27.511Z,44.35
2019-04-28T22:51:59.040Z,44.08
2019-04-28T22:54:35.367Z,44.23
2019-04-28T22:57:26.733Z,44.05
2019-04-28T22:59:59.805Z,44.23
2019-04-28T23:02:31.975Z,44.60
2019-04-28T23:05:05.735Z,44.26
2019-04-28T23:07:37.146Z,43.80
2019-04-28T23:10:09.414Z,43.52
2019-04-28T23:12:40.902Z,43.47
2019-04-28T23:15:13.997Z,43.33
2019-04-28T23:17:45.641Z,43.33
2019-04-28T23:20:17.081Z,43.45
2019-04-28T23:22:50.311Z,44.05
2019-04-28T23:25:21.904Z,43.82
2019-04-28T23:27:53.385Z,43.98
2019-04-28T23:30:36.626Z,44.43
2019-04-28T23:33:08.133Z,44.23
2019-04-28T23:35:39.932Z,44.47
2019-04-28T23:38:11.563Z,44.02
2019-04-28T23:40:44.602Z,43.66
2019-04-28T23:43:17.927Z,42.78
2019-04-28T23:45:49.345Z,42.63
2019-04-28T23:48:20.851Z,43.29
2019-04-28T23:50:53.902Z,43.67
2019-04-28T23:53:42.951Z,42.85
2019-04-28T23:56:14.465Z,42.83
2019-04-28T23:58:45.900Z,43.18
